createdAt,value
2022-09-07T00:00:58.966Z,54.44
2022-09-07T00:03:28.497Z,54.58
2022-09-07T00:05:56.582Z,54.64
2022-09-07T00:08:27.213Z,54.66
2022-09-07T00:10:56.977Z,54.87
2022-09-07T00:13:26.256Z,54.96
2022-09-07T00:15:54.221Z,54.96
2022-09-07T00:18:23.243Z,55.04
2022-09-07T00:21:00.628Z,55.22
2022-09-07T00:23:29.808Z,55.29
2022-09-07T00:26:01.531Z,55.34
2022-09-07T00:28:29.872Z,55.59
2022-09-07T00:30:58.070Z,55.64
2022-09-07T00:33:26.269Z,55.54
2022-09-07T00:35:54.159Z,55.70
2022-09-07T00:38:23.471Z,55.76
2022-09-07T00:40:51.328Z,56.01
2022-09-07T00:43:31.423Z,56.16
2022-09-07T00:45:59.511Z,56.26
2022-09-07T00:48:32.607Z,56.21
2022-09-07T00:51:04.086Z,56.41
2022-09-07T00:53:36.690Z,56.35
2022-09-07T00:56:07.412Z,56.67
2022-09-07T00:58:38.094Z,56.49
2022-09-07T01:01:06.214Z,56.62
2022-09-07T01:03:39.882Z,56.78
2022-09-07T01:06:13.431Z,56.93
2022-09-07T01:08:43.876Z,57.07
2022-09-07T01:11:12.920Z,57.08
2022-09-07T01:13:42.078Z,57.18
2022-09-07T01:16:19.758Z,57.36
2022-09-07T01:19:00.356Z,57.42
2022-09-07T01:21:34.159Z,57.60
2022-09-07T01:24:35.491Z,57.57
2022-09-07T01:27:50.334Z,57.77
2022-09-07T01:30:20.157Z,57.95
2022-09-07T01:33:02.488Z,57.86
2022-09-07T01:35:39.671Z,58.15
2022-09-07T01:38:15.990Z,58.07
2022-09-07T01:40:49.996Z,58.38
2022-09-07T01:43:26.963Z,58.31
2022-09-07T01:45:58.130Z,58.49
2022-09-07T01:48:27.488Z,58.46
2022-09-07T01:50:59.055Z,58.53
2022-09-07T01:53:33.723Z,58.76
2022-09-07T01:56:06.718Z,58.81
2022-09-07T01:58:40.554Z,58.78
2022-09-07T02:01:12.382Z,59.03
2022-09-07T02:03:45.926Z,59.13
2022-09-07T02:06:17.930Z,59.21
2022-09-07T02:08:55.211Z,59.16
2022-09-07T02:11:30.823Z,59.49
2022-09-07T02:14:02.950Z,59.59
2022-09-07T02:16:33.476Z,59.48
2022-09-07T02:19:05.889Z,59.63
2022-09-07T02:21:35.410Z,59.75
2022-09-07T02:24:07.314Z,59.74
2022-09-07T02:26:40.002Z,59.83
2022-09-07T02:29:09.480Z,59.79
2022-09-07T02:31:37.563Z,60.09
2022-09-07T02:34:05.533Z,60.07
2022-09-07T02:36:39.540Z,60.18
2022-09-07T02:39:07.446Z,60.31
2022-09-07T02:41:38.855Z,60.46
2022-09-07T02:44:14.079Z,60.50
2022-09-07T02:47:06.828Z,60.60
2022-09-07T02:50:02.192Z,60.73
2022-09-07T02:52:42.311Z,60.96
2022-09-07T02:55:22.016Z,61.02
2022-09-07T02:58:02.112Z,61.01
2022-09-07T03:00:35.829Z,61.00
2022-09-07T03:03:13.595Z,61.17
2022-09-07T03:05:46.179Z,61.49
2022-09-07T03:08:19.284Z,61.42
2022-09-07T03:10:48.556Z,61.47
2022-09-07T03:13:24.135Z,61.52
2022-09-07T03:15:55.994Z,61.74
2022-09-07T03:18:24.850Z,61.69
2022-09-07T03:20:52.728Z,61.90
2022-09-07T03:23:20.735Z,62.09
2022-09-07T03:25:48.838Z,62.13
2022-09-07T03:28:17.103Z,62.09
2022-09-07T03:30:46.220Z,62.21
2022-09-07T03:33:16.126Z,62.23
2022-09-07T03:35:44.507Z,62.31
2022-09-07T03:38:12.402Z,62.45
2022-09-07T03:40:40.386Z,62.56
2022-09-07T03:43:08.287Z,62.69
2022-09-07T03:45:36.223Z,62.87
2022-09-07T03:48:04.278Z,62.94
2022-09-07T03:50:33.598Z,62.74
2022-09-07T03:53:01.448Z,62.99
2022-09-07T03:55:29.290Z,63.11
2022-09-07T03:57:57.249Z,63.19
2022-09-07T04:00:26.080Z,63.37
2022-09-07T04:02:54.058Z,63.24
2022-09-07T04:05:21.983Z,63.39
2022-09-07T04:07:52.476Z,63.51
2022-09-07T04:10:20.349Z,63.54
2022-09-07T04:12:48.200Z,63.71
2022-09-07T04:15:16.282Z,63.80
2022-09-07T04:17:44.100Z,63.69
2022-09-07T04:20:11.994Z,63.86
2022-09-07T04:22:39.859Z,63.98
2022-09-07T04:25:09.743Z,64.03
2022-09-07T04:27:37.669Z,64.21
2022-09-07T04:30:06.165Z,64.10
2022-09-07T04:32:34.116Z,64.16
2022-09-07T04:35:02.009Z,64.41
2022-09-07T04:37:29.916Z,64.45
2022-09-07T04:39:57.818Z,64.36
2022-09-07T04:42:27.129Z,64.39
2022-09-07T04:44:54.974Z,64.52
2022-09-07T04:47:22.863Z,64.89
2022-09-07T04:49:51.594Z,64.66
2022-09-07T04:52:19.723Z,64.72
2022-09-07T04:54:50.543Z,64.74
2022-09-07T04:57:21.576Z,64.78
2022-09-07T04:59:51.962Z,65.00
2022-09-07T05:02:20.480Z,64.93
2022-09-07T05:04:48.437Z,65.08
2022-09-07T05:07:16.335Z,65.30
2022-09-07T05:09:44.204Z,65.27
2022-09-07T05:12:12.075Z,65.41
2022-09-07T05:14:39.936Z,65.29
2022-09-07T05:17:09.222Z,65.47
2022-09-07T05:19:37.559Z,65.61
2022-09-07T05:22:05.494Z,65.43
2022-09-07T05:24:33.928Z,65.75
2022-09-07T05:27:02.839Z,65.78
2022-09-07T05:32:20.006Z,65.74
2022-09-07T05:34:50.842Z,65.98
2022-09-07T05:37:20.225Z,65.95
2022-09-07T05:39:48.231Z,66.00
2022-09-07T05:42:16.291Z,66.05
2022-09-07T05:44:45.104Z,66.15
2022-09-07T05:47:13.782Z,66.23
2022-09-07T05:49:43.096Z,66.19
2022-09-07T05:52:11.239Z,66.37
2022-09-07T05:54:39.129Z,66.33
2022-09-07T05:57:07.451Z,66.54
2022-09-07T05:59:35.411Z,66.55
2022-09-07T06:02:03.505Z,66.49
2022-09-07T06:04:31.584Z,66.66
2022-09-07T06:12:36.866Z,66.64
2022-09-07T06:15:05.961Z,66.85
2022-09-07T06:17:33.968Z,66.94
2022-09-07T06:20:01.883Z,67.00
2022-09-07T06:22:31.443Z,66.95
2022-09-07T06:24:59.817Z,67.03
2022-09-07T06:27:27.734Z,67.25
2022-09-07T06:29:55.672Z,67.36
2022-09-07T06:35:12.269Z,67.45
2022-09-07T06:37:41.765Z,67.39
2022-09-07T06:40:11.610Z,67.73
2022-09-07T06:42:39.680Z,67.64
2022-09-07T06:45:11.292Z,67.60
2022-09-07T06:47:39.790Z,67.68
2022-09-07T06:50:08.790Z,67.77
2022-09-07T06:55:27.624Z,67.95
2022-09-07T06:57:55.601Z,67.89
2022-09-07T07:00:23.487Z,68.00
2022-09-07T07:02:51.417Z,68.04
2022-09-07T07:05:19.355Z,68.05
2022-09-07T07:07:47.255Z,68.18
2022-09-07T07:10:15.233Z,68.18
2022-09-07T07:15:11.490Z,68.18
2022-09-07T07:17:39.338Z,68.17
2022-09-07T07:20:08.304Z,68.43
2022-09-07T07:22:46.731Z,68.28
2022-09-07T07:25:16.000Z,68.29
2022-09-07T07:27:46.371Z,68.42
2022-09-07T07:30:14.681Z,68.53
2022-09-07T07:32:43.067Z,68.54
2022-09-07T07:35:11.660Z,68.30
2022-09-07T07:37:39.763Z,68.65
2022-09-07T07:42:41.592Z,68.52
2022-09-07T07:48:00.322Z,68.52
2022-09-07T07:50:32.173Z,68.48
2022-09-07T07:55:49.198Z,68.74
2022-09-07T07:58:17.108Z,68.77
2022-09-07T08:00:55.499Z,68.68
2022-09-07T08:03:25.214Z,68.84
2022-09-07T08:05:53.795Z,68.81
2022-09-07T08:08:22.845Z,68.47
2022-09-07T08:10:51.432Z,68.52
2022-09-07T08:13:19.470Z,68.86
2022-09-07T08:15:48.891Z,68.84
2022-09-07T08:18:18.115Z,68.62
2022-09-07T08:20:45.963Z,68.56
2022-09-07T08:23:14.669Z,68.59
2022-09-07T08:25:51.464Z,68.91
2022-09-07T08:28:19.532Z,68.77
2022-09-07T08:30:48.829Z,68.51
2022-09-07T08:33:17.249Z,68.76
2022-09-07T08:35:55.387Z,68.71
2022-09-07T08:38:23.365Z,68.77
2022-09-07T08:40:51.938Z,68.38
2022-09-07T08:43:31.092Z,68.74
2022-09-07T08:46:07.171Z,68.32
2022-09-07T08:48:36.161Z,68.69
2022-09-07T08:51:11.519Z,68.77
2022-09-07T08:53:46.769Z,68.34
2022-09-07T08:56:20.103Z,68.61
2022-09-07T08:58:50.394Z,68.69
2022-09-07T09:01:31.544Z,68.14
2022-09-07T09:04:16.475Z,68.08
2022-09-07T09:06:54.547Z,67.95
2022-09-07T09:09:32.679Z,68.07
2022-09-07T09:12:14.343Z,68.45
2022-09-07T09:14:58.268Z,68.18
2022-09-07T09:17:33.537Z,68.12
2022-09-07T09:20:09.136Z,67.97
2022-09-07T09:25:18.119Z,67.66
2022-09-07T09:27:45.949Z,67.91
2022-09-07T09:30:15.629Z,67.71
2022-09-07T09:32:46.469Z,67.34
2022-09-07T09:35:17.693Z,67.54
2022-09-07T09:37:48.520Z,67.35
2022-09-07T09:40:23.541Z,67.24
2022-09-07T09:43:01.778Z,67.44
2022-09-07T09:46:12.171Z,67.51
2022-09-07T09:48:23.895Z,67.24
2022-09-07T09:53:54.463Z,66.78
2022-09-07T09:56:23.091Z,66.91
2022-09-07T09:59:56.712Z,66.71
2022-09-07T10:04:34.029Z,66.54
2022-09-07T10:07:10.001Z,66.51
2022-09-07T10:09:45.203Z,66.44
2022-09-07T10:12:26.673Z,66.28
2022-09-07T10:14:56.544Z,66.34
2022-09-07T10:17:31.996Z,66.11
2022-09-07T10:20:38.157Z,65.94
